Appleton, Washington
Current Conditions -  °F | °C
As of 9:53 PM on Sunday 21 Dec 2014 (Local Time) from KDLS Reporting Station
Broken Clouds Broken Clouds  
Wind Chill: 51°   Ceiling: 5500
Heat Index: 51°   Visibility: 10mi
Dew Point: 44°   Wind: 8mph
Humidity: 77%   Direction: 330°NNW
Pressure: 30.1"   Gusts: NA
Location:  45.81°N, 121.27°W
Report Text: KDLS 220553Z AUTO 33007KT 10SM FEW023 BKN055 11/07 A3010 RMK AO2 SLP194 60000 T01060067 10117 20100 53003
Loading
Personal Weather Stations






























Interactive Weather Map New forecast layout! Learn more

10-Day Weather Forecast

Advertisements
Track Severe Weather on mobile